sensor_id;sensor_type;location;lat;lon;timestamp;temperature;humidity
43520;DHT22;46848;51.980;5.918;2023-01-19T00:01:25;4.10;86.00
43520;DHT22;46848;51.980;5.918;2023-01-19T00:03:50;4.10;85.40
43520;DHT22;46848;51.980;5.918;2023-01-19T00:06:17;4.20;85.60
43520;DHT22;46848;51.980;5.918;2023-01-19T00:08:43;4.10;85.30
43520;DHT22;46848;51.980;5.918;2023-01-19T00:11:14;4.20;85.60
43520;DHT22;46848;51.980;5.918;2023-01-19T00:13:42;4.20;85.70
43520;DHT22;46848;51.980;5.918;2023-01-19T00:16:14;4.10;85.60
43520;DHT22;46848;51.980;5.918;2023-01-19T00:18:42;4.20;85.70
43520;DHT22;46848;51.980;5.918;2023-01-19T00:21:08;4.10;86.10
43520;DHT22;46848;51.980;5.918;2023-01-19T00:23:33;4.10;85.80
43520;DHT22;46848;51.980;5.918;2023-01-19T00:25:59;4.20;85.80
43520;DHT22;46848;51.980;5.918;2023-01-19T00:28:24;4.20;85.70
43520;DHT22;46848;51.980;5.918;2023-01-19T00:30:50;4.20;85.50
43520;DHT22;46848;51.980;5.918;2023-01-19T00:33:16;4.20;85.70
43520;DHT22;46848;51.980;5.918;2023-01-19T00:35:42;4.20;85.70
43520;DHT22;46848;51.980;5.918;2023-01-19T00:38:09;4.20;85.40
43520;DHT22;46848;51.980;5.918;2023-01-19T00:40:35;4.20;85.70
43520;DHT22;46848;51.980;5.918;2023-01-19T00:43:01;4.20;85.30
43520;DHT22;46848;51.980;5.918;2023-01-19T00:45:29;4.20;85.60
43520;DHT22;46848;51.980;5.918;2023-01-19T00:47:55;4.20;85.80
43520;DHT22;46848;51.980;5.918;2023-01-19T00:50:25;4.20;85.90
43520;DHT22;46848;51.980;5.918;2023-01-19T00:52:52;4.20;85.80
43520;DHT22;46848;51.980;5.918;2023-01-19T00:55:18;4.20;85.90
43520;DHT22;46848;51.980;5.918;2023-01-19T00:57:43;4.20;85.90
43520;DHT22;46848;51.980;5.918;2023-01-19T01:00:12;4.20;85.80
43520;DHT22;46848;51.980;5.918;2023-01-19T01:02:39;4.20;85.70
43520;DHT22;46848;51.980;5.918;2023-01-19T01:05:05;4.20;85.60
43520;DHT22;46848;51.980;5.918;2023-01-19T01:07:32;4.10;86.10
43520;DHT22;46848;51.980;5.918;2023-01-19T01:10:13;4.20;85.80
43520;DHT22;46848;51.980;5.918;2023-01-19T01:12:39;4.10;86.00
43520;DHT22;46848;51.980;5.918;2023-01-19T01:15:07;4.10;86.10
43520;DHT22;46848;51.980;5.918;2023-01-19T01:17:33;4.10;86.20
43520;DHT22;46848;51.980;5.918;2023-01-19T01:19:58;4.10;86.30
43520;DHT22;46848;51.980;5.918;2023-01-19T01:22:24;4.10;86.20
43520;DHT22;46848;51.980;5.918;2023-01-19T01:24:50;4.10;86.20
43520;DHT22;46848;51.980;5.918;2023-01-19T01:27:15;4.10;86.80
43520;DHT22;46848;51.980;5.918;2023-01-19T01:29:41;4.00;87.10
43520;DHT22;46848;51.980;5.918;2023-01-19T01:32:13;4.00;86.50
43520;DHT22;46848;51.980;5.918;2023-01-19T01:34:40;4.00;86.60
43520;DHT22;46848;51.980;5.918;2023-01-19T01:37:05;4.00;86.70
43520;DHT22;46848;51.980;5.918;2023-01-19T01:39:35;4.00;86.70
43520;DHT22;46848;51.980;5.918;2023-01-19T01:42:02;4.00;87.00
43520;DHT22;46848;51.980;5.918;2023-01-19T01:44:50;4.00;86.90
43520;DHT22;46848;51.980;5.918;2023-01-19T01:50:15;4.00;87.40
43520;DHT22;46848;51.980;5.918;2023-01-19T01:53:06;4.00;87.10
43520;DHT22;46848;51.980;5.918;2023-01-19T01:55:40;4.00;87.60
43520;DHT22;46848;51.980;5.918;2023-01-19T01:58:08;4.00;87.80
43520;DHT22;46848;51.980;5.918;2023-01-19T02:00:35;4.00;87.90
43520;DHT22;46848;51.980;5.918;2023-01-19T02:03:22;4.00;87.60
43520;DHT22;46848;51.980;5.918;2023-01-19T02:05:49;3.90;87.80
43520;DHT22;46848;51.980;5.918;2023-01-19T02:08:26;3.90;87.80
43520;DHT22;46848;51.980;5.918;2023-01-19T02:11:12;3.90;87.50
43520;DHT22;46848;51.980;5.918;2023-01-19T02:13:56;3.90;87.60
43520;DHT22;46848;51.980;5.918;2023-01-19T02:16:22;3.80;87.50
43520;DHT22;46848;51.980;5.918;2023-01-19T02:18:48;3.80;87.50
43520;DHT22;46848;51.980;5.918;2023-01-19T02:21:40;3.80;87.60
43520;DHT22;46848;51.980;5.918;2023-01-19T02:24:09;3.80;87.40
43520;DHT22;46848;51.980;5.918;2023-01-19T02:26:40;3.70;87.30
43520;DHT22;46848;51.980;5.918;2023-01-19T02:29:16;3.70;87.30
43520;DHT22;46848;51.980;5.918;2023-01-19T02:31:43;3.70;87.30
43520;DHT22;46848;51.980;5.918;2023-01-19T02:34:11;3.70;87.30
43520;DHT22;46848;51.980;5.918;2023-01-19T02:37:04;3.60;87.10
43520;DHT22;46848;51.980;5.918;2023-01-19T02:39:44;3.60;87.00
43520;DHT22;46848;51.980;5.918;2023-01-19T02:42:25;3.50;86.80
43520;DHT22;46848;51.980;5.918;2023-01-19T02:44:53;3.50;86.80
43520;DHT22;46848;51.980;5.918;2023-01-19T02:47:19;3.50;86.70
43520;DHT22;46848;51.980;5.918;2023-01-19T02:49:58;3.50;86.80
43520;DHT22;46848;51.980;5.918;2023-01-19T02:52:25;3.50;86.90
43520;DHT22;46848;51.980;5.918;2023-01-19T02:55:14;3.40;87.00
43520;DHT22;46848;51.980;5.918;2023-01-19T02:57:53;3.40;86.90
43520;DHT22;46848;51.980;5.918;2023-01-19T03:00:41;3.40;87.00
43520;DHT22;46848;51.980;5.918;2023-01-19T03:03:27;3.40;87.00
43520;DHT22;46848;51.980;5.918;2023-01-19T03:09:31;3.40;87.10
43520;DHT22;46848;51.980;5.918;2023-01-19T03:11:40;3.40;87.10
43520;DHT22;46848;51.980;5.918;2023-01-19T03:14:10;3.40;87.20
43520;DHT22;46848;51.980;5.918;2023-01-19T03:16:56;3.40;87.50
43520;DHT22;46848;51.980;5.918;2023-01-19T03:19:35;3.40;87.30
43520;DHT22;46848;51.980;5.918;2023-01-19T03:22:06;3.40;87.10
43520;DHT22;46848;51.980;5.918;2023-01-19T03:24:36;3.40;87.10
43520;DHT22;46848;51.980;5.918;2023-01-19T03:27:22;3.40;87.00
43520;DHT22;46848;51.980;5.918;2023-01-19T03:29:53;3.40;87.00
43520;DHT22;46848;51.980;5.918;2023-01-19T03:32:22;3.40;86.90
43520;DHT22;46848;51.980;5.918;2023-01-19T03:34:50;3.40;86.80
43520;DHT22;46848;51.980;5.918;2023-01-19T03:37:18;3.40;86.90
43520;DHT22;46848;51.980;5.918;2023-01-19T03:39:45;3.40;86.90
43520;DHT22;46848;51.980;5.918;2023-01-19T03:42:13;3.50;86.90
43520;DHT22;46848;51.980;5.918;2023-01-19T03:44:42;3.40;86.90
43520;DHT22;46848;51.980;5.918;2023-01-19T03:47:10;3.30;86.70
43520;DHT22;46848;51.980;5.918;2023-01-19T03:49:40;3.40;87.50
43520;DHT22;46848;51.980;5.918;2023-01-19T03:52:07;3.40;87.00
43520;DHT22;46848;51.980;5.918;2023-01-19T03:54:33;3.40;86.90
43520;DHT22;46848;51.980;5.918;2023-01-19T03:56:59;3.40;87.00
43520;DHT22;46848;51.980;5.918;2023-01-19T03:59:24;3.40;86.90
43520;DHT22;46848;51.980;5.918;2023-01-19T04:01:50;3.40;86.90
43520;DHT22;46848;51.980;5.918;2023-01-19T04:04:16;3.50;87.00
43520;DHT22;46848;51.980;5.918;2023-01-19T04:06:42;3.50;87.10
43520;DHT22;46848;51.980;5.918;2023-01-19T04:09:08;3.50;87.00
43520;DHT22;46848;51.980;5.918;2023-01-19T04:11:33;3.50;87.10
43520;DHT22;46848;51.980;5.918;2023-01-19T04:13:59;3.50;87.10
43520;DHT22;46848;51.980;5.918;2023-01-19T04:16:26;3.60;87.10
43520;DHT22;46848;51.980;5.918;2023-01-19T04:18:51;3.60;87.30
43520;DHT22;46848;51.980;5.918;2023-01-19T04:21:18;3.60;87.40
43520;DHT22;46848;51.980;5.918;2023-01-19T04:23:45;3.60;87.50
43520;DHT22;46848;51.980;5.918;2023-01-19T04:26:11;3.60;87.80
43520;DHT22;46848;51.980;5.918;2023-01-19T04:28:37;3.60;87.50
43520;DHT22;46848;51.980;5.918;2023-01-19T04:31:04;3.60;87.40
43520;DHT22;46848;51.980;5.918;2023-01-19T04:33:30;3.60;87.20
43520;DHT22;46848;51.980;5.918;2023-01-19T04:35:56;3.60;87.40
43520;DHT22;46848;51.980;5.918;2023-01-19T04:38:23;3.60;87.30
43520;DHT22;46848;51.980;5.918;2023-01-19T04:40:49;3.60;87.20
43520;DHT22;46848;51.980;5.918;2023-01-19T04:43:18;3.60;87.10
43520;DHT22;46848;51.980;5.918;2023-01-19T04:45:45;3.60;87.10
43520;DHT22;46848;51.980;5.918;2023-01-19T04:48:11;3.70;87.00
43520;DHT22;46848;51.980;5.918;2023-01-19T04:50:37;3.60;87.20
43520;DHT22;46848;51.980;5.918;2023-01-19T04:53:03;3.60;87.40
43520;DHT22;46848;51.980;5.918;2023-01-19T04:55:29;3.60;87.20
43520;DHT22;46848;51.980;5.918;2023-01-19T04:57:54;3.60;87.10
43520;DHT22;46848;51.980;5.918;2023-01-19T05:00:20;3.70;87.10
43520;DHT22;46848;51.980;5.918;2023-01-19T05:02:46;3.60;87.10
43520;DHT22;46848;51.980;5.918;2023-01-19T05:05:12;3.60;87.30
43520;DHT22;46848;51.980;5.918;2023-01-19T05:07:38;3.80;87.20
43520;DHT22;46848;51.980;5.918;2023-01-19T05:10:05;3.70;87.20
43520;DHT22;46848;51.980;5.918;2023-01-19T05:12:31;3.70;87.10
43520;DHT22;46848;51.980;5.918;2023-01-19T05:14:57;3.70;87.20
43520;DHT22;46848;51.980;5.918;2023-01-19T05:17:23;3.70;87.20
43520;DHT22;46848;51.980;5.918;2023-01-19T05:19:49;3.70;87.10
43520;DHT22;46848;51.980;5.918;2023-01-19T05:22:15;3.70;87.10
43520;DHT22;46848;51.980;5.918;2023-01-19T05:24:41;3.70;87.30
43520;DHT22;46848;51.980;5.918;2023-01-19T05:27:06;3.70;87.20
43520;DHT22;46848;51.980;5.918;2023-01-19T05:29:32;3.80;87.20
43520;DHT22;46848;51.980;5.918;2023-01-19T05:31:59;3.80;87.20
43520;DHT22;46848;51.980;5.918;2023-01-19T05:34:25;3.70;87.10
43520;DHT22;46848;51.980;5.918;2023-01-19T05:36:51;3.80;87.10
43520;DHT22;46848;51.980;5.918;2023-01-19T05:39:16;3.80;87.00
43520;DHT22;46848;51.980;5.918;2023-01-19T05:41:42;3.80;87.10
43520;DHT22;46848;51.980;5.918;2023-01-19T05:44:10;3.80;87.20
43520;DHT22;46848;51.980;5.918;2023-01-19T05:46:36;3.80;87.80
43520;DHT22;46848;51.980;5.918;2023-01-19T05:49:02;3.70;87.10
43520;DHT22;46848;51.980;5.918;2023-01-19T05:51:30;3.80;87.20
43520;DHT22;46848;51.980;5.918;2023-01-19T05:54:00;3.90;87.20
43520;DHT22;46848;51.980;5.918;2023-01-19T05:56:26;3.90;87.20
43520;DHT22;46848;51.980;5.918;2023-01-19T05:58:51;3.90;87.30
43520;DHT22;46848;51.980;5.918;2023-01-19T06:01:17;3.90;87.30
43520;DHT22;46848;51.980;5.918;2023-01-19T06:03:43;4.00;87.20
43520;DHT22;46848;51.980;5.918;2023-01-19T06:06:08;4.00;87.10
43520;DHT22;46848;51.980;5.918;2023-01-19T06:08:34;4.00;87.10
43520;DHT22;46848;51.980;5.918;2023-01-19T06:11:00;3.90;87.00
43520;DHT22;46848;51.980;5.918;2023-01-19T06:13:26;4.00;87.00
43520;DHT22;46848;51.980;5.918;2023-01-19T06:15:58;4.10;87.10
43520;DHT22;46848;51.980;5.918;2023-01-19T06:18:24;4.00;87.00
43520;DHT22;46848;51.980;5.918;2023-01-19T06:20:50;4.10;87.00
43520;DHT22;46848;51.980;5.918;2023-01-19T06:23:17;4.10;87.00
43520;DHT22;46848;51.980;5.918;2023-01-19T06:25:42;4.10;87.00
43520;DHT22;46848;51.980;5.918;2023-01-19T06:28:08;4.10;86.90
43520;DHT22;46848;51.980;5.918;2023-01-19T06:30:33;4.10;87.00
43520;DHT22;46848;51.980;5.918;2023-01-19T06:32:59;4.10;87.00
43520;DHT22;46848;51.980;5.918;2023-01-19T06:35:25;4.20;87.00
43520;DHT22;46848;51.980;5.918;2023-01-19T06:37:51;4.20;87.00
43520;DHT22;46848;51.980;5.918;2023-01-19T06:40:17;4.20;87.10
43520;DHT22;46848;51.980;5.918;2023-01-19T06:42:43;4.20;87.10
43520;DHT22;46848;51.980;5.918;2023-01-19T06:45:09;4.20;87.00
43520;DHT22;46848;51.980;5.918;2023-01-19T06:47:34;4.30;87.00
43520;DHT22;46848;51.980;5.918;2023-01-19T06:50:00;4.30;87.00
43520;DHT22;46848;51.980;5.918;2023-01-19T06:52:26;4.30;87.00
43520;DHT22;46848;51.980;5.918;2023-01-19T06:54:53;4.30;87.10
43520;DHT22;46848;51.980;5.918;2023-01-19T06:57:18;4.40;87.10
43520;DHT22;46848;51.980;5.918;2023-01-19T06:59:44;4.30;87.10
43520;DHT22;46848;51.980;5.918;2023-01-19T07:02:10;4.40;87.00
43520;DHT22;46848;51.980;5.918;2023-01-19T07:04:36;4.30;87.00
43520;DHT22;46848;51.980;5.918;2023-01-19T07:07:01;4.40;87.00
43520;DHT22;46848;51.980;5.918;2023-01-19T07:09:27;4.40;87.00
43520;DHT22;46848;51.980;5.918;2023-01-19T07:11:53;4.40;86.90
43520;DHT22;46848;51.980;5.918;2023-01-19T07:14:19;4.40;86.80
43520;DHT22;46848;51.980;5.918;2023-01-19T07:16:45;4.50;86.80
43520;DHT22;46848;51.980;5.918;2023-01-19T07:19:11;4.40;86.70
43520;DHT22;46848;51.980;5.918;2023-01-19T07:21:38;4.50;86.80
43520;DHT22;46848;51.980;5.918;2023-01-19T07:24:04;4.50;86.90
43520;DHT22;46848;51.980;5.918;2023-01-19T07:26:30;4.40;86.80
43520;DHT22;46848;51.980;5.918;2023-01-19T07:28:56;4.40;87.00
43520;DHT22;46848;51.980;5.918;2023-01-19T07:31:21;4.40;87.00
43520;DHT22;46848;51.980;5.918;2023-01-19T07:33:47;4.30;87.00
43520;DHT22;46848;51.980;5.918;2023-01-19T07:36:13;4.30;87.10
43520;DHT22;46848;51.980;5.918;2023-01-19T07:38:38;4.40;87.10
43520;DHT22;46848;51.980;5.918;2023-01-19T07:41:06;4.40;87.10
43520;DHT22;46848;51.980;5.918;2023-01-19T07:43:33;4.40;87.00
43520;DHT22;46848;51.980;5.918;2023-01-19T07:46:00;4.40;87.00
43520;DHT22;46848;51.980;5.918;2023-01-19T07:48:27;4.30;86.90
43520;DHT22;46848;51.980;5.918;2023-01-19T07:50:53;4.40;87.00
43520;DHT22;46848;51.980;5.918;2023-01-19T07:53:23;4.40;87.00
43520;DHT22;46848;51.980;5.918;2023-01-19T07:55:53;4.30;87.00
43520;DHT22;46848;51.980;5.918;2023-01-19T07:58:19;4.40;87.00
43520;DHT22;46848;51.980;5.918;2023-01-19T08:00:44;4.30;87.00
43520;DHT22;46848;51.980;5.918;2023-01-19T08:03:10;4.30;86.90
43520;DHT22;46848;51.980;5.918;2023-01-19T08:05:36;4.40;87.00
43520;DHT22;46848;51.980;5.918;2023-01-19T08:08:02;4.40;87.00
43520;DHT22;46848;51.980;5.918;2023-01-19T08:10:29;4.40;86.90
43520;DHT22;46848;51.980;5.918;2023-01-19T08:12:56;4.40;86.90
43520;DHT22;46848;51.980;5.918;2023-01-19T08:15:23;4.30;86.90
43520;DHT22;46848;51.980;5.918;2023-01-19T08:17:56;4.40;86.90
43520;DHT22;46848;51.980;5.918;2023-01-19T08:20:23;4.40;86.90
43520;DHT22;46848;51.980;5.918;2023-01-19T08:22:49;4.40;87.00
43520;DHT22;46848;51.980;5.918;2023-01-19T08:25:14;4.40;87.00
43520;DHT22;46848;51.980;5.918;2023-01-19T08:27:40;4.40;86.90
43520;DHT22;46848;51.980;5.918;2023-01-19T08:30:06;4.40;87.00
43520;DHT22;46848;51.980;5.918;2023-01-19T08:32:32;4.40;86.90
43520;DHT22;46848;51.980;5.918;2023-01-19T08:34:58;4.40;86.90
43520;DHT22;46848;51.980;5.918;2023-01-19T08:37:23;4.50;86.80
43520;DHT22;46848;51.980;5.918;2023-01-19T08:39:49;4.50;86.70
43520;DHT22;46848;51.980;5.918;2023-01-19T08:42:15;4.60;86.80
43520;DHT22;46848;51.980;5.918;2023-01-19T08:44:40;4.50;86.70
43520;DHT22;46848;51.980;5.918;2023-01-19T08:47:06;4.50;86.60
43520;DHT22;46848;51.980;5.918;2023-01-19T08:49:33;4.50;86.70
43520;DHT22;46848;51.980;5.918;2023-01-19T08:51:59;4.50;86.70
43520;DHT22;46848;51.980;5.918;2023-01-19T08:54:27;4.40;86.70
43520;DHT22;46848;51.980;5.918;2023-01-19T08:56:53;4.50;86.80
43520;DHT22;46848;51.980;5.918;2023-01-19T08:59:18;4.40;86.90
43520;DHT22;46848;51.980;5.918;2023-01-19T09:01:44;4.50;86.90
43520;DHT22;46848;51.980;5.918;2023-01-19T09:04:10;4.50;86.90
43520;DHT22;46848;51.980;5.918;2023-01-19T09:06:35;4.70;87.40
43520;DHT22;46848;51.980;5.918;2023-01-19T09:09:01;5.00;87.80
43520;DHT22;46848;51.980;5.918;2023-01-19T09:11:27;5.50;87.60
43520;DHT22;46848;51.980;5.918;2023-01-19T09:13:52;5.80;86.50
43520;DHT22;46848;51.980;5.918;2023-01-19T09:16:18;5.90;85.60
43520;DHT22;46848;51.980;5.918;2023-01-19T09:18:44;6.10;85.70
43520;DHT22;46848;51.980;5.918;2023-01-19T09:21:10;6.50;85.50
43520;DHT22;46848;51.980;5.918;2023-01-19T09:23:36;7.10;85.00
43520;DHT22;46848;51.980;5.918;2023-01-19T09:26:03;7.60;84.10
43520;DHT22;46848;51.980;5.918;2023-01-19T09:28:29;8.20;82.60
43520;DHT22;46848;51.980;5.918;2023-01-19T09:30:55;8.70;81.40
43520;DHT22;46848;51.980;5.918;2023-01-19T09:33:21;9.10;80.10
43520;DHT22;46848;51.980;5.918;2023-01-19T09:35:48;9.40;78.50
43520;DHT22;46848;51.980;5.918;2023-01-19T09:38:15;9.50;77.90
43520;DHT22;46848;51.980;5.918;2023-01-19T09:40:44;9.60;76.40
43520;DHT22;46848;51.980;5.918;2023-01-19T09:43:30;9.60;76.30
43520;DHT22;46848;51.980;5.918;2023-01-19T09:46:03;9.90;76.20
43520;DHT22;46848;51.980;5.918;2023-01-19T09:48:54;10.00;75.30
43520;DHT22;46848;51.980;5.918;2023-01-19T09:51:23;10.40;75.20
43520;DHT22;46848;51.980;5.918;2023-01-19T09:56:37;10.90;74.00
43520;DHT22;46848;51.980;5.918;2023-01-19T09:59:21;11.10;73.60
43520;DHT22;46848;51.980;5.918;2023-01-19T10:02:13;11.20;72.70
43520;DHT22;46848;51.980;5.918;2023-01-19T10:04:41;11.30;72.50
43520;DHT22;46848;51.980;5.918;2023-01-19T10:18:03;10.90;72.90
43520;DHT22;46848;51.980;5.918;2023-01-19T10:21:23;10.60;73.30
43520;DHT22;46848;51.980;5.918;2023-01-19T10:26:00;10.30;74.70
43520;DHT22;46848;51.980;5.918;2023-01-19T10:28:29;10.10;75.00
43520;DHT22;46848;51.980;5.918;2023-01-19T10:30:54;10.10;75.40
43520;DHT22;46848;51.980;5.918;2023-01-19T10:33:20;10.10;75.80
43520;DHT22;46848;51.980;5.918;2023-01-19T10:35:46;10.20;75.80
43520;DHT22;46848;51.980;5.918;2023-01-19T10:38:14;10.40;75.30
43520;DHT22;46848;51.980;5.918;2023-01-19T10:41:04;10.50;75.40
43520;DHT22;46848;51.980;5.918;2023-01-19T10:43:38;10.60;74.90
43520;DHT22;46848;51.980;5.918;2023-01-19T10:46:06;10.70;74.70
43520;DHT22;46848;51.980;5.918;2023-01-19T10:48:39;10.70;74.60
43520;DHT22;46848;51.980;5.918;2023-01-19T10:51:08;10.80;74.60
43520;DHT22;46848;51.980;5.918;2023-01-19T10:53:34;10.90;74.50
43520;DHT22;46848;51.980;5.918;2023-01-19T10:56:20;10.90;74.50
43520;DHT22;46848;51.980;5.918;2023-01-19T10:58:47;10.90;73.40
43520;DHT22;46848;51.980;5.918;2023-01-19T11:01:22;10.80;74.10
43520;DHT22;46848;51.980;5.918;2023-01-19T11:03:48;10.80;74.30
43520;DHT22;46848;51.980;5.918;2023-01-19T11:08:41;10.80;74.30
43520;DHT22;46848;51.980;5.918;2023-01-19T11:11:07;10.80;73.60
43520;DHT22;46848;51.980;5.918;2023-01-19T11:13:34;10.80;73.50
43520;DHT22;46848;51.980;5.918;2023-01-19T11:16:06;10.80;74.20
43520;DHT22;46848;51.980;5.918;2023-01-19T11:18:37;10.70;73.60
43520;DHT22;46848;51.980;5.918;2023-01-19T11:21:14;10.70;73.50
43520;DHT22;46848;51.980;5.918;2023-01-19T11:27:01;10.60;73.80
43520;DHT22;46848;51.980;5.918;2023-01-19T11:29:03;10.60;73.20
43520;DHT22;46848;51.980;5.918;2023-01-19T11:31:33;10.60;74.10
43520;DHT22;46848;51.980;5.918;2023-01-19T11:34:25;10.60;73.30
43520;DHT22;46848;51.980;5.918;2023-01-19T11:37:20;10.60;73.00
43520;DHT22;46848;51.980;5.918;2023-01-19T11:39:51;10.60;73.10
43520;DHT22;46848;51.980;5.918;2023-01-19T11:42:18;10.70;73.10
43520;DHT22;46848;51.980;5.918;2023-01-19T11:47:38;10.70;72.50
43520;DHT22;46848;51.980;5.918;2023-01-19T11:50:10;10.80;72.40
43520;DHT22;46848;51.980;5.918;2023-01-19T11:52:51;10.70;72.60
43520;DHT22;46848;51.980;5.918;2023-01-19T11:55:36;10.70;72.30
43520;DHT22;46848;51.980;5.918;2023-01-19T11:58:04;10.70;72.80
43520;DHT22;46848;51.980;5.918;2023-01-19T12:00:36;10.70;72.80
43520;DHT22;46848;51.980;5.918;2023-01-19T12:06:00;10.70;72.50
43520;DHT22;46848;51.980;5.918;2023-01-19T12:08:54;10.70;72.60
43520;DHT22;46848;51.980;5.918;2023-01-19T12:11:33;10.70;72.50
43520;DHT22;46848;51.980;5.918;2023-01-19T12:14:01;10.70;72.40
43520;DHT22;46848;51.980;5.918;2023-01-19T12:16:29;10.70;71.80
43520;DHT22;46848;51.980;5.918;2023-01-19T12:18:59;10.60;72.10
43520;DHT22;46848;51.980;5.918;2023-01-19T12:21:26;10.60;72.30
43520;DHT22;46848;51.980;5.918;2023-01-19T12:29:11;10.70;73.00
43520;DHT22;46848;51.980;5.918;2023-01-19T12:31:38;10.80;72.80
43520;DHT22;46848;51.980;5.918;2023-01-19T12:34:43;10.80;72.60
43520;DHT22;46848;51.980;5.918;2023-01-19T12:39:56;11.00;72.40
43520;DHT22;46848;51.980;5.918;2023-01-19T12:42:23;11.00;71.20
43520;DHT22;46848;51.980;5.918;2023-01-19T12:44:53;11.00;71.90
43520;DHT22;46848;51.980;5.918;2023-01-19T12:47:28;11.00;71.10
43520;DHT22;46848;51.980;5.918;2023-01-19T12:49:58;10.90;71.00
43520;DHT22;46848;51.980;5.918;2023-01-19T12:52:34;10.90;70.60
43520;DHT22;46848;51.980;5.918;2023-01-19T13:00:45;11.00;70.70
43520;DHT22;46848;51.980;5.918;2023-01-19T13:13:32;10.30;71.80
43520;DHT22;46848;51.980;5.918;2023-01-19T13:26:23;9.60;72.80
43520;DHT22;46848;51.980;5.918;2023-01-19T13:28:55;9.60;72.70
43520;DHT22;46848;51.980;5.918;2023-01-19T13:31:23;9.60;71.90
43520;DHT22;46848;51.980;5.918;2023-01-19T13:33:50;9.70;72.60
43520;DHT22;46848;51.980;5.918;2023-01-19T13:36:35;9.80;72.40
43520;DHT22;46848;51.980;5.918;2023-01-19T13:39:33;9.90;71.60
43520;DHT22;46848;51.980;5.918;2023-01-19T13:42:04;10.00;70.60
43520;DHT22;46848;51.980;5.918;2023-01-19T13:44:39;9.90;70.60
43520;DHT22;46848;51.980;5.918;2023-01-19T13:47:15;9.80;70.50
43520;DHT22;46848;51.980;5.918;2023-01-19T13:49:45;9.90;70.30
43520;DHT22;46848;51.980;5.918;2023-01-19T13:52:17;9.90;69.60
43520;DHT22;46848;51.980;5.918;2023-01-19T13:57:32;10.00;69.50
43520;DHT22;46848;51.980;5.918;2023-01-19T14:05:29;10.10;67.00
43520;DHT22;46848;51.980;5.918;2023-01-19T14:10:37;10.20;66.60
43520;DHT22;46848;51.980;5.918;2023-01-19T14:15:46;10.20;65.70
43520;DHT22;46848;51.980;5.918;2023-01-19T14:20:50;9.90;65.70
43520;DHT22;46848;51.980;5.918;2023-01-19T14:23:48;9.90;66.30
43520;DHT22;46848;51.980;5.918;2023-01-19T14:29:22;9.80;64.50
43520;DHT22;46848;51.980;5.918;2023-01-19T14:32:04;9.70;65.40
43520;DHT22;46848;51.980;5.918;2023-01-19T14:34:37;9.70;65.30
43520;DHT22;46848;51.980;5.918;2023-01-19T14:37:22;9.60;65.50
43520;DHT22;46848;51.980;5.918;2023-01-19T14:45:19;9.50;65.50
43520;DHT22;46848;51.980;5.918;2023-01-19T14:47:51;9.50;65.60
43520;DHT22;46848;51.980;5.918;2023-01-19T14:50:58;9.50;65.60
43520;DHT22;46848;51.980;5.918;2023-01-19T14:53:18;9.40;65.70
43520;DHT22;46848;51.980;5.918;2023-01-19T14:55:54;9.20;65.70
43520;DHT22;46848;51.980;5.918;2023-01-19T14:58:23;9.10;65.50
43520;DHT22;46848;51.980;5.918;2023-01-19T15:00:50;9.10;65.70
43520;DHT22;46848;51.980;5.918;2023-01-19T15:03:23;9.00;65.90
43520;DHT22;46848;51.980;5.918;2023-01-19T15:05:50;8.90;66.20
43520;DHT22;46848;51.980;5.918;2023-01-19T15:08:19;8.90;66.40
43520;DHT22;46848;51.980;5.918;2023-01-19T15:10:48;8.80;66.50
43520;DHT22;46848;51.980;5.918;2023-01-19T15:13:24;8.70;66.80
43520;DHT22;46848;51.980;5.918;2023-01-19T15:15:50;8.60;67.40
43520;DHT22;46848;51.980;5.918;2023-01-19T15:18:21;8.60;67.60
43520;DHT22;46848;51.980;5.918;2023-01-19T15:20:48;8.50;67.60
43520;DHT22;46848;51.980;5.918;2023-01-19T15:23:14;8.40;67.60
43520;DHT22;46848;51.980;5.918;2023-01-19T15:25:39;8.40;67.70
43520;DHT22;46848;51.980;5.918;2023-01-19T15:28:12;8.30;67.50
43520;DHT22;46848;51.980;5.918;2023-01-19T15:30:38;8.20;67.40
43520;DHT22;46848;51.980;5.918;2023-01-19T15:33:04;8.20;67.70
43520;DHT22;46848;51.980;5.918;2023-01-19T15:35:30;8.10;67.80
43520;DHT22;46848;51.980;5.918;2023-01-19T15:37:56;8.00;68.20
43520;DHT22;46848;51.980;5.918;2023-01-19T15:40:22;8.00;68.20
43520;DHT22;46848;51.980;5.918;2023-01-19T15:42:48;7.90;67.80
43520;DHT22;46848;51.980;5.918;2023-01-19T15:45:48;7.90;68.10
43520;DHT22;46848;51.980;5.918;2023-01-19T15:48:08;7.70;67.30
43520;DHT22;46848;51.980;5.918;2023-01-19T15:50:40;7.70;67.90
43520;DHT22;46848;51.980;5.918;2023-01-19T15:53:06;7.60;68.90
43520;DHT22;46848;51.980;5.918;2023-01-19T15:55:35;7.50;69.30
43520;DHT22;46848;51.980;5.918;2023-01-19T15:58:01;7.40;69.50
43520;DHT22;46848;51.980;5.918;2023-01-19T16:00:28;7.40;70.10
43520;DHT22;46848;51.980;5.918;2023-01-19T16:02:54;7.30;70.80
43520;DHT22;46848;51.980;5.918;2023-01-19T16:05:20;7.20;71.20
43520;DHT22;46848;51.980;5.918;2023-01-19T16:07:46;7.20;71.60
43520;DHT22;46848;51.980;5.918;2023-01-19T16:10:12;7.10;72.80
43520;DHT22;46848;51.980;5.918;2023-01-19T16:12:38;7.00;73.50
43520;DHT22;46848;51.980;5.918;2023-01-19T16:15:04;6.90;73.70
43520;DHT22;46848;51.980;5.918;2023-01-19T16:17:30;6.90;74.00
43520;DHT22;46848;51.980;5.918;2023-01-19T16:19:55;6.90;74.10
43520;DHT22;46848;51.980;5.918;2023-01-19T16:22:21;6.80;74.20
43520;DHT22;46848;51.980;5.918;2023-01-19T16:24:47;6.80;74.30
43520;DHT22;46848;51.980;5.918;2023-01-19T16:27:12;6.80;74.40
43520;DHT22;46848;51.980;5.918;2023-01-19T16:29:38;6.80;74.60
43520;DHT22;46848;51.980;5.918;2023-01-19T16:32:04;6.80;74.70
43520;DHT22;46848;51.980;5.918;2023-01-19T16:34:30;6.70;74.90
43520;DHT22;46848;51.980;5.918;2023-01-19T16:36:55;6.70;75.20
43520;DHT22;46848;51.980;5.918;2023-01-19T16:39:21;6.60;75.80
43520;DHT22;46848;51.980;5.918;2023-01-19T16:41:46;6.50;75.90
43520;DHT22;46848;51.980;5.918;2023-01-19T16:44:14;6.50;76.10
43520;DHT22;46848;51.980;5.918;2023-01-19T16:46:42;6.50;76.10
43520;DHT22;46848;51.980;5.918;2023-01-19T16:49:12;6.40;76.20
43520;DHT22;46848;51.980;5.918;2023-01-19T16:51:38;6.40;76.30
43520;DHT22;46848;51.980;5.918;2023-01-19T16:54:04;6.40;76.50
43520;DHT22;46848;51.980;5.918;2023-01-19T16:56:30;6.40;76.60
43520;DHT22;46848;51.980;5.918;2023-01-19T16:58:57;6.30;76.70
43520;DHT22;46848;51.980;5.918;2023-01-19T17:01:25;6.30;76.90
43520;DHT22;46848;51.980;5.918;2023-01-19T17:03:51;6.20;77.00
43520;DHT22;46848;51.980;5.918;2023-01-19T17:06:18;6.20;77.10
43520;DHT22;46848;51.980;5.918;2023-01-19T17:08:47;6.10;77.20
43520;DHT22;46848;51.980;5.918;2023-01-19T17:11:15;6.10;78.10
43520;DHT22;46848;51.980;5.918;2023-01-19T17:13:45;6.00;77.60
43520;DHT22;46848;51.980;5.918;2023-01-19T17:16:11;6.00;77.60
43520;DHT22;46848;51.980;5.918;2023-01-19T17:18:37;6.00;77.50
43520;DHT22;46848;51.980;5.918;2023-01-19T17:21:08;5.90;77.50
43520;DHT22;46848;51.980;5.918;2023-01-19T17:23:34;5.90;77.60
43520;DHT22;46848;51.980;5.918;2023-01-19T17:26:02;5.80;77.60
43520;DHT22;46848;51.980;5.918;2023-01-19T17:28:28;5.80;77.60